sensor_id;sensor_type;location;lat;lon;timestamp;pressure;altitude;pressure_sealevel;temperature;humidity
41312;BME280;27061;41.648;24.568;2023-03-25T00:01:23;85655.69;;;6.31;68.61
41312;BME280;27061;41.648;24.568;2023-03-25T00:03:51;85659.13;;;6.28;69.27
41312;BME280;27061;41.648;24.568;2023-03-25T00:06:19;85624.09;;;6.08;68.92
41312;BME280;27061;41.648;24.568;2023-03-25T00:08:46;85688.66;;;6.51;69.15
41312;BME280;27061;41.648;24.568;2023-03-25T00:11:13;85685.91;;;6.51;69.83
41312;BME280;27061;41.648;24.568;2023-03-25T00:13:40;85679.72;;;6.45;69.73
41312;BME280;27061;41.648;24.568;2023-03-25T00:16:12;85659.09;;;6.36;69.67
41312;BME280;27061;41.648;24.568;2023-03-25T00:18:39;85644.69;;;6.23;70.25
41312;BME280;27061;41.648;24.568;2023-03-25T00:21:07;85570.53;;;5.76;69.41
41312;BME280;27061;41.648;24.568;2023-03-25T00:23:42;85635.06;;;6.18;70.31
41312;BME280;27061;41.648;24.568;2023-03-25T00:26:09;85650.84;;;6.38;70.18
41312;BME280;27061;41.648;24.568;2023-03-25T00:28:37;85663.91;;;6.43;70.49
41312;BME280;27061;41.648;24.568;2023-03-25T00:31:07;85661.84;;;6.50;70.24
41312;BME280;27061;41.648;24.568;2023-03-25T00:33:34;85619.94;;;6.33;69.54
41312;BME280;27061;41.648;24.568;2023-03-25T00:36:02;85645.34;;;6.52;69.24
41312;BME280;27061;41.648;24.568;2023-03-25T00:38:32;85629.53;;;6.38;69.47
41312;BME280;27061;41.648;24.568;2023-03-25T00:41:27;85655.63;;;6.47;71.17
41312;BME280;27061;41.648;24.568;2023-03-25T00:43:59;85625.44;;;6.17;71.21
41312;BME280;27061;41.648;24.568;2023-03-25T00:46:29;85659.78;;;6.50;70.73
41312;BME280;27061;41.648;24.568;2023-03-25T00:48:58;85646.72;;;6.53;70.56
41312;BME280;27061;41.648;24.568;2023-03-25T00:51:26;85531.41;;;5.64;70.88
41312;BME280;27061;41.648;24.568;2023-03-25T00:53:55;85645.31;;;6.48;71.67
41312;BME280;27061;41.648;24.568;2023-03-25T00:56:26;85618.56;;;6.26;72.30
41312;BME280;27061;41.648;24.568;2023-03-25T00:58:54;85604.84;;;6.08;72.84
41312;BME280;27061;41.648;24.568;2023-03-25T01:01:26;85612.41;;;6.15;72.46
41312;BME280;27061;41.648;24.568;2023-03-25T01:04:00;85641.94;;;6.35;72.84
41312;BME280;27061;41.648;24.568;2023-03-25T01:06:31;85640.56;;;6.32;73.09
41312;BME280;27061;41.648;24.568;2023-03-25T01:09:00;85613.09;;;6.12;73.67
41312;BME280;27061;41.648;24.568;2023-03-25T01:11:30;85627.53;;;6.22;73.53
41312;BME280;27061;41.648;24.568;2023-03-25T01:14:01;85642.59;;;6.40;72.14
41312;BME280;27061;41.648;24.568;2023-03-25T01:16:28;85629.53;;;6.44;72.21
41312;BME280;27061;41.648;24.568;2023-03-25T01:18:55;85624.72;;;6.45;72.16
41312;BME280;27061;41.648;24.568;2023-03-25T01:21:24;85610.28;;;6.36;71.88
41312;BME280;27061;41.648;24.568;2023-03-25T01:23:51;85626.78;;;6.46;71.34
41312;BME280;27061;41.648;24.568;2023-03-25T01:26:18;85613.03;;;6.42;71.57
41312;BME280;27061;41.648;24.568;2023-03-25T01:28:45;85610.97;;;6.39;72.98
41312;BME280;27061;41.648;24.568;2023-03-25T01:31:13;85602.06;;;6.30;73.45
41312;BME280;27061;41.648;24.568;2023-03-25T01:33:41;85619.22;;;6.45;72.82
41312;BME280;27061;41.648;24.568;2023-03-25T01:36:09;85605.53;;;6.22;73.94
41312;BME280;27061;41.648;24.568;2023-03-25T01:38:39;85621.31;;;6.28;73.45
41312;BME280;27061;41.648;24.568;2023-03-25T01:41:08;85599.34;;;6.24;74.11
41312;BME280;27061;41.648;24.568;2023-03-25T01:43:35;85562.97;;;6.03;73.50
41312;BME280;27061;41.648;24.568;2023-03-25T01:46:03;85581.47;;;6.17;73.40
41312;BME280;27061;41.648;24.568;2023-03-25T01:48:38;85591.09;;;6.24;73.16
41312;BME280;27061;41.648;24.568;2023-03-25T01:51:16;85602.75;;;6.29;73.54
41312;BME280;27061;41.648;24.568;2023-03-25T01:53:44;85603.44;;;6.35;72.79
41312;BME280;27061;41.648;24.568;2023-03-25T01:56:15;85581.47;;;6.21;73.07
41312;BME280;27061;41.648;24.568;2023-03-25T01:58:44;85596.53;;;6.36;72.63
41312;BME280;27061;41.648;24.568;2023-03-25T02:01:14;85595.16;;;6.39;71.99
41312;BME280;27061;41.648;24.568;2023-03-25T02:03:42;85575.28;;;6.29;72.39
41312;BME280;27061;41.648;24.568;2023-03-25T02:06:27;85534.81;;;6.03;71.87
41312;BME280;27061;41.648;24.568;2023-03-25T02:08:58;85555.38;;;6.16;71.71
41312;BME280;27061;41.648;24.568;2023-03-25T02:11:27;85569.09;;;6.26;71.91
41312;BME280;27061;41.648;24.568;2023-03-25T02:14:07;85566.34;;;6.26;72.16
41312;BME280;27061;41.648;24.568;2023-03-25T02:16:55;85559.50;;;6.07;73.42
41312;BME280;27061;41.648;24.568;2023-03-25T02:28:49;85570.47;;;6.31;71.72
41312;BME280;27061;41.648;24.568;2023-03-25T02:35:16;85560.81;;;6.38;71.75
41312;BME280;27061;41.648;24.568;2023-03-25T02:43:04;85562.88;;;6.40;70.99
41312;BME280;27061;41.648;24.568;2023-03-25T02:45:36;85538.84;;;6.34;70.51
41312;BME280;27061;41.648;24.568;2023-03-25T02:48:18;85529.25;;;6.23;70.40
41312;BME280;27061;41.648;24.568;2023-03-25T02:50:52;85518.94;;;6.19;70.13
41312;BME280;27061;41.648;24.568;2023-03-25T02:53:26;85555.31;;;6.38;70.49
41312;BME280;27061;41.648;24.568;2023-03-25T02:55:59;85539.56;;;6.22;70.63
41312;BME280;27061;41.648;24.568;2023-03-25T02:58:28;85540.97;;;6.09;70.50
41312;BME280;27061;41.648;24.568;2023-03-25T03:00:56;85452.47;;;5.58;70.62
41312;BME280;27061;41.648;24.568;2023-03-25T03:03:26;85538.91;;;6.06;71.63
41312;BME280;27061;41.648;24.568;2023-03-25T03:06:01;85477.16;;;5.62;71.54
41312;BME280;27061;41.648;24.568;2023-03-25T03:11:09;85554.03;;;6.07;72.21
41312;BME280;27061;41.648;24.568;2023-03-25T03:19:55;85553.31;;;6.18;72.20
41312;BME280;27061;41.648;24.568;2023-03-25T03:22:40;85558.13;;;6.16;71.79
41312;BME280;27061;41.648;24.568;2023-03-25T03:25:13;85549.19;;;6.15;71.42
41312;BME280;27061;41.648;24.568;2023-03-25T03:33:36;85554.03;;;6.07;72.31
41312;BME280;27061;41.648;24.568;2023-03-25T03:36:13;85545.81;;;5.97;72.92
41312;BME280;27061;41.648;24.568;2023-03-25T03:38:48;85514.22;;;5.79;72.10
41312;BME280;27061;41.648;24.568;2023-03-25T03:41:20;85539.59;;;6.06;71.85
41312;BME280;27061;41.648;24.568;2023-03-25T03:44:11;85538.94;;;5.98;72.00
41312;BME280;27061;41.648;24.568;2023-03-25T03:46:51;85527.94;;;5.83;71.47
41312;BME280;27061;41.648;24.568;2023-03-25T03:49:23;85503.25;;;5.71;71.25
41312;BME280;27061;41.648;24.568;2023-03-25T03:52:02;85549.91;;;6.10;70.08
41312;BME280;27061;41.648;24.568;2023-03-25T03:54:43;85500.50;;;5.77;70.19
41312;BME280;27061;41.648;24.568;2023-03-25T03:57:25;85529.28;;;6.11;70.05
41312;BME280;27061;41.648;24.568;2023-03-25T04:02:38;85541.63;;;6.20;69.24
41312;BME280;27061;41.648;24.568;2023-03-25T04:05:11;85532.69;;;6.19;69.03
41312;BME280;27061;41.648;24.568;2023-03-25T04:07:43;85540.94;;;6.19;68.83
41312;BME280;27061;41.648;24.568;2023-03-25T04:10:20;85537.47;;;6.25;68.72
41312;BME280;27061;41.648;24.568;2023-03-25T04:12:53;85529.25;;;6.23;68.42
41312;BME280;27061;41.648;24.568;2023-03-25T04:15:21;85529.94;;;6.23;68.39
41312;BME280;27061;41.648;24.568;2023-03-25T04:17:48;85490.16;;;6.02;68.52
41312;BME280;27061;41.648;24.568;2023-03-25T04:20:21;85535.41;;;6.32;68.29
41312;BME280;27061;41.648;24.568;2023-03-25T04:22:50;85531.97;;;6.29;68.57
41312;BME280;27061;41.648;24.568;2023-03-25T04:25:18;85534.75;;;6.23;68.92
41312;BME280;27061;41.648;24.568;2023-03-25T04:27:47;85484.66;;;5.96;68.55
41312;BME280;27061;41.648;24.568;2023-03-25T04:30:15;85529.25;;;6.19;69.42
41312;BME280;27061;41.648;24.568;2023-03-25T04:32:46;85521.69;;;6.19;69.23
41312;BME280;27061;41.648;24.568;2023-03-25T04:35:14;85526.47;;;6.29;69.30
41312;BME280;27061;41.648;24.568;2023-03-25T04:37:43;85530.59;;;6.32;69.72
41312;BME280;27061;41.648;24.568;2023-03-25T04:40:20;85534.69;;;6.37;70.25
41312;BME280;27061;41.648;24.568;2023-03-25T04:42:47;85514.13;;;6.24;70.31
41312;BME280;27061;41.648;24.568;2023-03-25T04:45:15;85536.13;;;6.20;69.91
41312;BME280;27061;41.648;24.568;2023-03-25T04:47:47;85515.50;;;6.17;70.40
41312;BME280;27061;41.648;24.568;2023-03-25T04:50:24;85516.84;;;6.26;70.70
41312;BME280;27061;41.648;24.568;2023-03-25T04:52:52;85524.41;;;6.25;71.48
41312;BME280;27061;41.648;24.568;2023-03-25T04:55:20;85534.03;;;6.35;71.71
41312;BME280;27061;41.648;24.568;2023-03-25T04:57:49;85519.59;;;6.34;72.45
41312;BME280;27061;41.648;24.568;2023-03-25T05:00:19;85532.59;;;6.46;72.84
41312;BME280;27061;41.648;24.568;2023-03-25T05:02:52;85529.13;;;6.55;73.26
41312;BME280;27061;41.648;24.568;2023-03-25T05:05:22;85505.16;;;6.32;73.74
41312;BME280;27061;41.648;24.568;2023-03-25T05:07:54;85529.16;;;6.47;74.53
41312;BME280;27061;41.648;24.568;2023-03-25T05:10:25;85522.31;;;6.44;74.61
41312;BME280;27061;41.648;24.568;2023-03-25T05:13:02;85533.84;;;6.71;75.31
41312;BME280;27061;41.648;24.568;2023-03-25T05:15:31;85534.50;;;6.80;76.25
41312;BME280;27061;41.648;24.568;2023-03-25T05:18:01;85531.72;;;6.86;76.82
41312;BME280;27061;41.648;24.568;2023-03-25T05:20:28;85523.47;;;6.86;76.60
41312;BME280;27061;41.648;24.568;2023-03-25T05:22:56;85527.56;;;6.95;77.42
41312;BME280;27061;41.648;24.568;2023-03-25T05:25:24;85517.88;;;7.00;77.81
41312;BME280;27061;41.648;24.568;2023-03-25T05:27:51;85527.47;;;7.07;77.90
41312;BME280;27061;41.648;24.568;2023-03-25T05:30:18;85498.63;;;7.00;78.18
41312;BME280;27061;41.648;24.568;2023-03-25T05:32:45;85527.34;;;7.27;78.55
41312;BME280;27061;41.648;24.568;2023-03-25T05:35:27;85529.97;;;7.44;77.65
41312;BME280;27061;41.648;24.568;2023-03-25T05:37:54;85536.16;;;7.50;79.26
41312;BME280;27061;41.648;24.568;2023-03-25T05:40:22;85534.72;;;7.57;78.89
41312;BME280;27061;41.648;24.568;2023-03-25T05:42:49;85525.69;;;7.63;77.90
41312;BME280;27061;41.648;24.568;2023-03-25T05:45:16;85537.97;;;7.82;77.78
41312;BME280;27061;41.648;24.568;2023-03-25T05:47:43;85539.25;;;7.91;77.24
41312;BME280;27061;41.648;24.568;2023-03-25T05:50:10;85517.28;;;7.81;76.22
41312;BME280;27061;41.648;24.568;2023-03-25T05:52:38;85539.75;;;8.12;76.08
41312;BME280;27061;41.648;24.568;2023-03-25T05:55:16;85534.81;;;8.23;77.10
41312;BME280;27061;41.648;24.568;2023-03-25T05:57:46;85520.38;;;8.18;76.07
41312;BME280;27061;41.648;24.568;2023-03-25T06:00:15;85529.19;;;8.37;75.77
41312;BME280;27061;41.648;24.568;2023-03-25T06:02:45;85553.81;;;8.57;77.01
41312;BME280;27061;41.648;24.568;2023-03-25T06:05:15;85513.19;;;8.48;76.02
41312;BME280;27061;41.648;24.568;2023-03-25T06:07:44;85511.06;;;8.54;75.57
41312;BME280;27061;41.648;24.568;2023-03-25T06:10:13;85506.81;;;8.63;74.49
41312;BME280;27061;41.648;24.568;2023-03-25T06:12:44;85535.41;;;8.97;74.95
41312;BME280;27061;41.648;24.568;2023-03-25T06:15:15;85507.91;;;8.89;74.70
41312;BME280;27061;41.648;24.568;2023-03-25T06:17:43;85541.25;;;9.26;74.71
41312;BME280;27061;41.648;24.568;2023-03-25T06:20:16;85497.97;;;9.10;70.95
41312;BME280;27061;41.648;24.568;2023-03-25T06:22:45;85519.72;;;9.34;67.97
41312;BME280;27061;41.648;24.568;2023-03-25T06:25:17;85539.25;;;9.69;68.99
41312;BME280;27061;41.648;24.568;2023-03-25T06:27:49;85504.81;;;9.62;63.51
41312;BME280;27061;41.648;24.568;2023-03-25T06:30:20;85512.13;;;9.82;64.21
41312;BME280;27061;41.648;24.568;2023-03-25T06:32:47;85520.09;;;10.02;62.61
41312;BME280;27061;41.648;24.568;2023-03-25T06:35:22;85493.00;;;10.09;61.47
41312;BME280;27061;41.648;24.568;2023-03-25T06:37:49;85538.44;;;10.63;56.09
41312;BME280;27061;41.648;24.568;2023-03-25T06:40:24;85471.38;;;10.21;58.60
41312;BME280;27061;41.648;24.568;2023-03-25T06:42:52;85527.84;;;10.74;61.30
41312;BME280;27061;41.648;24.568;2023-03-25T06:45:39;85553.00;;;10.98;66.82
41312;BME280;27061;41.648;24.568;2023-03-25T06:48:19;85556.97;;;11.10;64.06
41312;BME280;27061;41.648;24.568;2023-03-25T06:50:46;85553.13;;;11.27;53.90
41312;BME280;27061;41.648;24.568;2023-03-25T06:53:14;85546.59;;;11.43;55.91
41312;BME280;27061;41.648;24.568;2023-03-25T06:55:41;85547.69;;;11.56;56.16
41312;BME280;27061;41.648;24.568;2023-03-25T06:58:10;85550.94;;;11.67;58.51
41312;BME280;27061;41.648;24.568;2023-03-25T07:00:38;85517.41;;;11.46;59.66
41312;BME280;27061;41.648;24.568;2023-03-25T07:03:05;85551.19;;;11.88;53.88
41312;BME280;27061;41.648;24.568;2023-03-25T07:05:32;85552.28;;;12.01;57.39
41312;BME280;27061;41.648;24.568;2023-03-25T07:08:00;85552.03;;;12.13;50.59
41312;BME280;27061;41.648;24.568;2023-03-25T07:10:27;85545.63;;;12.19;52.62
41312;BME280;27061;41.648;24.568;2023-03-25T07:12:55;85561.25;;;12.34;57.91
41312;BME280;27061;41.648;24.568;2023-03-25T07:15:22;85543.09;;;12.39;49.38
41312;BME280;27061;41.648;24.568;2023-03-25T07:17:49;85546.19;;;12.54;49.98
41312;BME280;27061;41.648;24.568;2023-03-25T07:20:16;85532.34;;;12.52;50.56
41312;BME280;27061;41.648;24.568;2023-03-25T07:22:53;85532.78;;;12.63;52.39
41312;BME280;27061;41.648;24.568;2023-03-25T07:25:21;85545.84;;;12.95;52.14
41312;BME280;27061;41.648;24.568;2023-03-25T07:27:48;85536.88;;;12.93;51.72
41312;BME280;27061;41.648;24.568;2023-03-25T07:30:17;85500.59;;;12.72;50.86
41312;BME280;27061;41.648;24.568;2023-03-25T07:32:44;85541.13;;;13.16;48.68
41312;BME280;27061;41.648;24.568;2023-03-25T07:35:12;85558.13;;;13.31;47.28
41312;BME280;27061;41.648;24.568;2023-03-25T07:37:39;85547.06;;;13.29;46.78
41312;BME280;27061;41.648;24.568;2023-03-25T07:40:06;85558.31;;;13.50;46.21
41312;BME280;27061;41.648;24.568;2023-03-25T07:42:35;85526.13;;;13.32;47.60
41312;BME280;27061;41.648;24.568;2023-03-25T07:45:20;85519.72;;;13.38;48.69
41312;BME280;27061;41.648;24.568;2023-03-25T07:47:50;85551.84;;;13.82;47.48
41312;BME280;27061;41.648;24.568;2023-03-25T07:50:20;85507.19;;;13.64;47.48
41312;BME280;27061;41.648;24.568;2023-03-25T07:52:56;85537.72;;;13.88;49.05
41312;BME280;27061;41.648;24.568;2023-03-25T07:55:23;85512.78;;;13.86;49.22
41312;BME280;27061;41.648;24.568;2023-03-25T07:57:50;85546.63;;;14.18;48.33
41312;BME280;27061;41.648;24.568;2023-03-25T08:00:18;85527.13;;;14.18;47.30
41312;BME280;27061;41.648;24.568;2023-03-25T08:02:45;85544.34;;;14.47;48.05
41312;BME280;27061;41.648;24.568;2023-03-25T08:05:12;85531.28;;;14.42;46.14
41312;BME280;27061;41.648;24.568;2023-03-25T08:07:41;85551.94;;;14.72;45.58
41312;BME280;27061;41.648;24.568;2023-03-25T08:10:09;85539.34;;;14.73;47.20
41312;BME280;27061;41.648;24.568;2023-03-25T08:12:36;85500.22;;;14.56;46.88
41312;BME280;27061;41.648;24.568;2023-03-25T08:15:03;85548.22;;;15.00;45.92
41312;BME280;27061;41.648;24.568;2023-03-25T08:17:30;85542.38;;;15.08;45.90
41312;BME280;27061;41.648;24.568;2023-03-25T08:19:58;85539.13;;;15.22;46.63
41312;BME280;27061;41.648;24.568;2023-03-25T08:22:26;85497.59;;;14.93;42.97
41312;BME280;27061;41.648;24.568;2023-03-25T08:24:53;85501.31;;;15.07;41.82
41312;BME280;27061;41.648;24.568;2023-03-25T08:27:21;85539.78;;;15.44;43.74
41312;BME280;27061;41.648;24.568;2023-03-25T08:29:48;85505.50;;;15.26;44.65
41312;BME280;27061;41.648;24.568;2023-03-25T08:32:24;85469.97;;;15.06;42.51
41312;BME280;27061;41.648;24.568;2023-03-25T08:34:53;85499.38;;;15.43;42.51
41312;BME280;27061;41.648;24.568;2023-03-25T08:37:21;85522.44;;;15.62;39.50
41312;BME280;27061;41.648;24.568;2023-03-25T08:39:48;85523.44;;;15.73;44.94
41312;BME280;27061;41.648;24.568;2023-03-25T08:42:16;85537.25;;;15.96;44.77
41312;BME280;27061;41.648;24.568;2023-03-25T08:44:43;85507.81;;;15.80;44.22
41312;BME280;27061;41.648;24.568;2023-03-25T08:47:10;85522.41;;;16.01;42.83
41312;BME280;27061;41.648;24.568;2023-03-25T08:49:37;85520.59;;;16.13;43.25
41312;BME280;27061;41.648;24.568;2023-03-25T08:52:05;85469.72;;;15.91;40.89
41312;BME280;27061;41.648;24.568;2023-03-25T08:54:34;85495.06;;;16.23;44.12
41312;BME280;27061;41.648;24.568;2023-03-25T08:57:02;85518.25;;;16.38;43.08
41312;BME280;27061;41.648;24.568;2023-03-25T08:59:29;85491.00;;;16.38;40.76
41312;BME280;27061;41.648;24.568;2023-03-25T09:01:56;85492.78;;;16.46;42.61
41312;BME280;27061;41.648;24.568;2023-03-25T09:04:26;85527.09;;;16.80;43.06
41312;BME280;27061;41.648;24.568;2023-03-25T09:06:53;85513.06;;;16.82;42.91
41312;BME280;27061;41.648;24.568;2023-03-25T09:09:38;85516.31;;;17.05;45.02
41312;BME280;27061;41.648;24.568;2023-03-25T09:12:06;85521.25;;;17.22;40.03
41312;BME280;27061;41.648;24.568;2023-03-25T09:14:33;85467.16;;;16.94;42.28
41312;BME280;27061;41.648;24.568;2023-03-25T09:17:00;85485.41;;;17.26;43.33
41312;BME280;27061;41.648;24.568;2023-03-25T09:19:28;85491.94;;;17.37;41.89
41312;BME280;27061;41.648;24.568;2023-03-25T09:21:55;85506.50;;;17.56;38.31
41312;BME280;27061;41.648;24.568;2023-03-25T09:24:22;85490.19;;;17.61;40.80
41312;BME280;27061;41.648;24.568;2023-03-25T09:26:49;85456.44;;;17.48;40.25
41312;BME280;27061;41.648;24.568;2023-03-25T09:29:16;85501.06;;;17.86;41.20
41312;BME280;27061;41.648;24.568;2023-03-25T09:31:44;85481.69;;;17.80;40.66
41312;BME280;27061;41.648;24.568;2023-03-25T09:34:11;85505.75;;;18.06;41.71
41312;BME280;27061;41.648;24.568;2023-03-25T09:36:41;85496.50;;;18.10;38.31
41312;BME280;27061;41.648;24.568;2023-03-25T09:39:08;85496.53;;;18.24;39.78
41312;BME280;27061;41.648;24.568;2023-03-25T09:41:45;85491.22;;;18.33;38.90
41312;BME280;27061;41.648;24.568;2023-03-25T09:44:27;85491.34;;;18.46;39.66
41312;BME280;27061;41.648;24.568;2023-03-25T09:46:59;85484.22;;;18.49;41.11
41312;BME280;27061;41.648;24.568;2023-03-25T09:49:39;85463.34;;;18.46;39.22
41312;BME280;27061;41.648;24.568;2023-03-25T09:52:16;85464.06;;;18.61;38.99
41312;BME280;27061;41.648;24.568;2023-03-25T09:54:52;85482.84;;;18.94;39.27
41312;BME280;27061;41.648;24.568;2023-03-25T09:57:26;85465.03;;;18.85;37.32
41312;BME280;27061;41.648;24.568;2023-03-25T09:59:56;85443.75;;;18.90;37.92
41312;BME280;27061;41.648;24.568;2023-03-25T10:02:39;85477.19;;;19.23;39.60
41312;BME280;27061;41.648;24.568;2023-03-25T10:11:00;85466.66;;;19.24;36.68
41312;BME280;27061;41.648;24.568;2023-03-25T10:16:26;85461.22;;;19.49;37.11
41312;BME280;27061;41.648;24.568;2023-03-25T10:24:47;85439.03;;;19.58;33.71
41312;BME280;27061;41.648;24.568;2023-03-25T10:27:01;85432.13;;;19.69;32.54
41312;BME280;27061;41.648;24.568;2023-03-25T10:29:35;85374.13;;;19.36;35.11
41312;BME280;27061;41.648;24.568;2023-03-25T10:32:06;85431.75;;;19.90;34.75
41312;BME280;27061;41.648;24.568;2023-03-25T10:34:42;85386.47;;;19.56;30.14
41312;BME280;27061;41.648;24.568;2023-03-25T10:37:24;85400.47;;;19.84;32.88
41312;BME280;27061;41.648;24.568;2023-03-25T10:39:59;85365.44;;;19.83;34.38
41312;BME280;27061;41.648;24.568;2023-03-25T10:42:37;85411.38;;;20.17;31.00
41312;BME280;27061;41.648;24.568;2023-03-25T10:45:14;85410.25;;;20.12;29.57
41312;BME280;27061;41.648;24.568;2023-03-25T10:47:43;85409.47;;;20.26;34.00
41312;BME280;27061;41.648;24.568;2023-03-25T10:50:16;85403.31;;;20.36;34.10
41312;BME280;27061;41.648;24.568;2023-03-25T10:52:44;85376.09;;;20.20;31.05
41312;BME280;27061;41.648;24.568;2023-03-25T10:55:27;85390.41;;;20.41;33.87
41312;BME280;27061;41.648;24.568;2023-03-25T10:57:58;85402.00;;;20.61;32.71
41312;BME280;27061;41.648;24.568;2023-03-25T11:00:27;85406.50;;;20.68;32.43
41312;BME280;27061;41.648;24.568;2023-03-25T11:02:56;85387.16;;;20.50;30.95
41312;BME280;27061;41.648;24.568;2023-03-25T11:05:25;85375.63;;;20.28;31.03
41312;BME280;27061;41.648;24.568;2023-03-25T11:07:59;85366.09;;;20.36;32.19
41312;BME280;27061;41.648;24.568;2023-03-25T11:10:47;85373.91;;;20.61;30.63
41312;BME280;27061;41.648;24.568;2023-03-25T11:13:17;85377.72;;;20.68;29.70
41312;BME280;27061;41.648;24.568;2023-03-25T11:15:47;85352.75;;;20.49;31.08
41312;BME280;27061;41.648;24.568;2023-03-25T11:18:29;85378.28;;;20.58;27.60
41312;BME280;27061;41.648;24.568;2023-03-25T11:21:07;85390.09;;;20.60;29.76
41312;BME280;27061;41.648;24.568;2023-03-25T11:23:43;85320.09;;;20.16;28.81
41312;BME280;27061;41.648;24.568;2023-03-25T11:26:22;85384.69;;;20.56;28.46
41312;BME280;27061;41.648;24.568;2023-03-25T11:29:00;85344.50;;;20.20;29.20
41312;BME280;27061;41.648;24.568;2023-03-25T11:31:33;85348.66;;;20.21;29.62
41312;BME280;27061;41.648;24.568;2023-03-25T11:36:50;85365.66;;;20.31;29.65
41312;BME280;27061;41.648;24.568;2023-03-25T11:39:38;85359.66;;;20.12;29.45
41312;BME280;27061;41.648;24.568;2023-03-25T11:44:50;85366.84;;;20.09;29.81
41312;BME280;27061;41.648;24.568;2023-03-25T11:47:35;85354.91;;;19.96;29.54
41312;BME280;27061;41.648;24.568;2023-03-25T11:50:05;85367.28;;;20.01;28.58
41312;BME280;27061;41.648;24.568;2023-03-25T11:52:43;85337.63;;;19.64;29.24
41312;BME280;27061;41.648;24.568;2023-03-25T11:55:22;85365.09;;;19.76;29.94
41312;BME280;27061;41.648;24.568;2023-03-25T11:57:59;85338.09;;;19.41;29.98
41312;BME280;27061;41.648;24.568;2023-03-25T12:00:48;85349.50;;;19.52;30.11
41312;BME280;27061;41.648;24.568;2023-03-25T12:03:20;85355.16;;;19.37;30.56
41312;BME280;27061;41.648;24.568;2023-03-25T12:05:59;85351.03;;;19.21;30.33
41312;BME280;27061;41.648;24.568;2023-03-25T12:08:41;85338.00;;;19.16;31.71
41312;BME280;27061;41.648;24.568;2023-03-25T12:16:45;85348.56;;;19.00;33.59
41312;BME280;27061;41.648;24.568;2023-03-25T12:19:28;85350.63;;;18.87;32.92
41312;BME280;27061;41.648;24.568;2023-03-25T12:24:46;85345.25;;;18.54;35.52
41312;BME280;27061;41.648;24.568;2023-03-25T12:28:32;85350.38;;;18.49;33.99
41312;BME280;27061;41.648;24.568;2023-03-25T12:30:55;85352.97;;;18.39;35.46
41312;BME280;27061;41.648;24.568;2023-03-25T12:42:30;85325.44;;;18.14;35.99
41312;BME280;27061;41.648;24.568;2023-03-25T12:45:31;85331.81;;;17.98;35.67
41312;BME280;27061;41.648;24.568;2023-03-25T12:48:19;85322.44;;;18.03;36.52
41312;BME280;27061;41.648;24.568;2023-03-25T12:59:02;85317.72;;;18.14;37.33
41312;BME280;27061;41.648;24.568;2023-03-25T13:04:37;85311.16;;;18.20;39.08
41312;BME280;27061;41.648;24.568;2023-03-25T13:07:19;85274.94;;;18.16;38.23
41312;BME280;27061;41.648;24.568;2023-03-25T13:13:22;85286.28;;;18.56;36.52
41312;BME280;27061;41.648;24.568;2023-03-25T13:16:15;85278.78;;;18.38;35.36
41312;BME280;27061;41.648;24.568;2023-03-25T13:18:48;85264.44;;;18.44;35.62
41312;BME280;27061;41.648;24.568;2023-03-25T13:23:51;85278.97;;;18.63;34.70
41312;BME280;27061;41.648;24.568;2023-03-25T13:26:22;85271.63;;;18.41;34.44
41312;BME280;27061;41.648;24.568;2023-03-25T13:31:36;85263.81;;;18.43;36.29
41312;BME280;27061;41.648;24.568;2023-03-25T13:42:25;85288.50;;;18.68;35.46
41312;BME280;27061;41.648;24.568;2023-03-25T13:44:56;85250.56;;;18.42;35.99
41312;BME280;27061;41.648;24.568;2023-03-25T13:47:30;85276.72;;;18.65;37.57
41312;BME280;27061;41.648;24.568;2023-03-25T13:50:14;85282.13;;;18.70;37.70
41312;BME280;27061;41.648;24.568;2023-03-25T13:52:49;85260.97;;;18.58;38.36
41312;BME280;27061;41.648;24.568;2023-03-25T13:55:22;85225.03;;;18.48;37.11
41312;BME280;27061;41.648;24.568;2023-03-25T14:14:34;85178.72;;;18.21;40.63
41312;BME280;27061;41.648;24.568;2023-03-25T14:17:03;85246.94;;;18.73;40.39
41312;BME280;27061;41.648;24.568;2023-03-25T14:19:34;85238.03;;;18.68;39.43
41312;BME280;27061;41.648;24.568;2023-03-25T14:22:13;85258.41;;;18.81;41.03
41312;BME280;27061;41.648;24.568;2023-03-25T14:24:41;85251.75;;;18.74;41.12
41312;BME280;27061;41.648;24.568;2023-03-25T14:27:23;85249.25;;;18.68;40.91
41312;BME280;27061;41.648;24.568;2023-03-25T14:32:41;85252.22;;;18.79;40.13
41312;BME280;27061;41.648;24.568;2023-03-25T14:43:37;85260.88;;;18.60;40.61
41312;BME280;27061;41.648;24.568;2023-03-25T14:48:44;85239.28;;;18.29;40.65
41312;BME280;27061;41.648;24.568;2023-03-25T14:56:24;85162.09;;;17.75;41.74
41312;BME280;27061;41.648;24.568;2023-03-25T14:59:01;85219.69;;;18.14;42.32
41312;BME280;27061;41.648;24.568;2023-03-25T15:01:34;85238.09;;;18.24;42.09
41312;BME280;27061;41.648;24.568;2023-03-25T15:06:45;85251.94;;;18.28;43.16
41312;BME280;27061;41.648;24.568;2023-03-25T15:09:16;85257.63;;;18.26;43.69
41312;BME280;27061;41.648;24.568;2023-03-25T15:12:02;85247.09;;;18.26;43.85
41312;BME280;27061;41.648;24.568;2023-03-25T15:14:34;85250.56;;;18.27;43.72
41312;BME280;27061;41.648;24.568;2023-03-25T15:17:09;85233.78;;;18.12;43.81
41312;BME280;27061;41.648;24.568;2023-03-25T15:22:28;85217.66;;;18.13;44.75
41312;BME280;27061;41.648;24.568;2023-03-25T15:24:59;85223.94;;;18.13;44.79
41312;BME280;27061;41.648;24.568;2023-03-25T15:38:51;85253.38;;;18.12;44.68
41312;BME280;27061;41.648;24.568;2023-03-25T15:42:05;85228.88;;;17.83;45.47
41312;BME280;27061;41.648;24.568;2023-03-25T15:47:21;85268.94;;;18.09;45.82
41312;BME280;27061;41.648;24.568;2023-03-25T15:50:30;85270.97;;;17.96;45.81
41312;BME280;27061;41.648;24.568;2023-03-25T15:53:02;85272.53;;;17.78;46.80
41312;BME280;27061;41.648;24.568;2023-03-25T15:56:12;85288.31;;;17.69;47.50
41312;BME280;27061;41.648;24.568;2023-03-25T16:01:27;85288.06;;;17.44;48.13